Time;durP1;ratioP1;P1;durP2;ratioP2;P2;SDS_P1;SDS_P2;PMS_P1;PMS_P2;Temp;Humidity;BMP_temperature;BMP_pressure;BME280_temperature;BME280_humidity;BME280_pressure;Samples;Min_cycle;Max_cycle;Signal;HPM_P1;HPM_P2
2022/11/24 00:01:08;;;;;;;;;;;6.40;99.90;;;;;;5091142;27;19951;-69
2022/11/24 00:03:34;;;;;;;;;;;6.20;99.90;;;;;;5097099;27;19950;-69
2022/11/24 00:06:04;;;;;;;;;;;6.30;99.90;;;;;;5098963;28;19923;-68
2022/11/24 00:08:29;;;;;;;;;;;6.30;99.90;;;;;;5092709;27;19920;-67
2022/11/24 00:10:55;;;;;;;;;;;6.40;99.90;;;;;;5095866;27;19962;-69
2022/11/24 00:13:20;;;;;;;;;;;6.40;99.90;;;;;;5098354;27;20078;-68
2022/11/24 00:15:46;;;;;;;;;;;6.40;99.90;;;;;;5111660;27;19924;-69
2022/11/24 00:18:11;;;;;;;;;;;6.30;99.90;;;;;;5098669;27;20289;-67
2022/11/24 00:20:37;;;;;;;;;;;6.30;99.90;;;;;;5097307;27;19919;-69
2022/11/24 00:23:03;;;;;;;;;;;6.40;99.90;;;;;;5099174;27;20271;-68
2022/11/24 00:25:28;;;;;;;;;;;6.50;99.90;;;;;;5096032;27;20020;-71
2022/11/24 00:27:54;;;;;;;;;;;6.40;99.90;;;;;;5096434;27;19926;-67
2022/11/24 00:30:19;;;;;;;;;;;6.50;99.90;;;;;;5090665;28;20293;-68
2022/11/24 00:32:45;;;;;;;;;;;6.50;99.90;;;;;;5096020;28;19920;-69
2022/11/24 00:35:10;;;;;;;;;;;6.40;99.90;;;;;;5103313;27;19927;-67
2022/11/24 00:37:36;;;;;;;;;;;6.40;99.90;;;;;;5094951;28;20321;-68
2022/11/24 00:40:01;;;;;;;;;;;6.50;99.90;;;;;;5096620;27;20417;-69
2022/11/24 00:42:27;;;;;;;;;;;6.50;99.90;;;;;;5096987;27;19924;-69
2022/11/24 00:44:52;;;;;;;;;;;6.50;99.90;;;;;;5093647;28;19935;-71
2022/11/24 00:47:18;;;;;;;;;;;6.50;99.90;;;;;;5095432;27;19927;-68
2022/11/24 00:49:43;;;;;;;;;;;6.40;99.90;;;;;;5094353;28;19920;-69
2022/11/24 00:52:09;;;;;;;;;;;6.50;99.90;;;;;;5114456;27;20428;-68
2022/11/24 00:54:34;;;;;;;;;;;6.50;99.90;;;;;;5093363;28;19969;-69
2022/11/24 00:57:00;;;;;;;;;;;6.60;99.90;;;;;;5100510;27;20019;-68
2022/11/24 00:59:25;;;;;;;;;;;6.60;99.90;;;;;;5076967;28;20034;-68
2022/11/24 01:01:51;;;;;;;;;;;6.50;99.90;;;;;;5093232;27;19931;-69
2022/11/24 01:04:16;;;;;;;;;;;6.60;99.90;;;;;;5095244;28;19926;-68
2022/11/24 01:06:42;;;;;;;;;;;6.70;99.90;;;;;;5097688;28;19931;-70
2022/11/24 01:09:09;;;;;;;;;;;6.50;99.90;;;;;;5096255;28;20373;-71
2022/11/24 01:14:21;;;;;;;;;;;6.50;99.90;;;;;;5128032;27;19927;-66
2022/11/24 01:16:46;;;;;;;;;;;6.60;99.90;;;;;;5090572;28;20379;-70
2022/11/24 01:19:12;;;;;;;;;;;6.60;99.90;;;;;;5095434;27;21275;-68
2022/11/24 01:21:37;;;;;;;;;;;6.60;99.90;;;;;;5096661;28;19973;-70
2022/11/24 01:24:03;;;;;;;;;;;6.60;99.90;;;;;;5098187;27;20069;-70
2022/11/24 01:26:28;;;;;;;;;;;6.60;99.90;;;;;;5098887;27;19963;-69
2022/11/24 01:28:56;;;;;;;;;;;6.70;99.90;;;;;;5096553;28;19924;-67
2022/11/24 01:31:22;;;;;;;;;;;6.60;99.90;;;;;;5091280;28;20252;-68
2022/11/24 01:33:47;;;;;;;;;;;6.60;99.90;;;;;;5094761;28;19931;-68
2022/11/24 01:36:13;;;;;;;;;;;6.60;99.90;;;;;;5127210;27;19928;-69
2022/11/24 01:38:39;;;;;;;;;;;6.50;99.90;;;;;;5095215;28;20378;-67
2022/11/24 01:41:04;;;;;;;;;;;6.60;99.90;;;;;;5091547;27;20016;-68
2022/11/24 01:43:30;;;;;;;;;;;6.60;99.90;;;;;;5097718;28;20322;-69
2022/11/24 01:45:55;;;;;;;;;;;6.60;99.90;;;;;;5127711;27;20295;-69
2022/11/24 01:48:27;;;;;;;;;;;6.70;99.90;;;;;;5088894;28;19924;-69
2022/11/24 01:51:13;;;;;;;;;;;6.60;99.90;;;;;;5094014;28;19931;-68
2022/11/24 01:53:40;;;;;;;;;;;6.60;99.90;;;;;;5095219;28;19920;-69
2022/11/24 01:56:07;;;;;;;;;;;6.70;99.90;;;;;;5092449;28;19931;-68
2022/11/24 01:58:34;;;;;;;;;;;6.80;99.90;;;;;;5089571;28;20349;-68
2022/11/24 02:01:00;;;;;;;;;;;6.70;99.90;;;;;;5127888;27;19924;-72
2022/11/24 02:03:29;;;;;;;;;;;6.70;99.90;;;;;;5094510;27;19924;-69
2022/11/24 02:06:01;;;;;;;;;;;6.70;99.90;;;;;;5091006;28;19974;-68
2022/11/24 02:08:33;;;;;;;;;;;6.80;99.90;;;;;;5127537;27;20401;-68
2022/11/24 02:11:00;;;;;;;;;;;6.90;99.90;;;;;;5098270;28;19935;-67
2022/11/24 02:13:26;;;;;;;;;;;6.90;99.90;;;;;;5131863;27;20336;-67
2022/11/24 02:15:52;;;;;;;;;;;6.90;99.90;;;;;;5095604;28;19977;-67
2022/11/24 02:18:18;;;;;;;;;;;6.80;99.90;;;;;;5098433;28;19920;-70
2022/11/24 02:20:43;;;;;;;;;;;6.80;99.90;;;;;;5092987;27;20062;-68
2022/11/24 02:23:21;;;;;;;;;;;6.90;99.90;;;;;;5098325;28;19932;-68
2022/11/24 02:25:46;;;;;;;;;;;6.90;99.90;;;;;;5094424;28;19932;-70
2022/11/24 02:28:14;;;;;;;;;;;6.90;99.90;;;;;;5094260;28;20370;-69
2022/11/24 02:30:40;;;;;;;;;;;6.80;99.90;;;;;;5095820;28;19935;-69
2022/11/24 02:33:05;;;;;;;;;;;6.90;99.90;;;;;;5097288;28;19920;-68
2022/11/24 02:35:31;;;;;;;;;;;6.80;99.90;;;;;;5095685;28;19926;-68
2022/11/24 02:37:58;;;;;;;;;;;6.90;99.90;;;;;;5123691;27;19964;-67
2022/11/24 02:40:26;;;;;;;;;;;7.00;99.90;;;;;;5093138;28;19927;-68
2022/11/24 02:42:53;;;;;;;;;;;7.10;99.90;;;;;;5093322;28;20300;-69
2022/11/24 02:45:19;;;;;;;;;;;7.00;99.90;;;;;;5093139;28;19923;-68
2022/11/24 02:47:45;;;;;;;;;;;7.10;99.90;;;;;;5095481;28;19924;-68
2022/11/24 02:50:11;;;;;;;;;;;7.10;99.90;;;;;;5093360;28;19924;-70
2022/11/24 02:52:36;;;;;;;;;;;7.20;99.90;;;;;;5092088;28;20367;-68
2022/11/24 02:55:02;;;;;;;;;;;7.20;99.90;;;;;;5122801;27;19924;-66
2022/11/24 02:57:28;;;;;;;;;;;7.20;99.90;;;;;;5092281;28;20389;-68
2022/11/24 02:59:54;;;;;;;;;;;7.20;99.90;;;;;;5094873;28;19925;-68
2022/11/24 03:02:20;;;;;;;;;;;7.10;99.90;;;;;;5095577;28;19924;-70
2022/11/24 03:04:45;;;;;;;;;;;7.20;99.90;;;;;;5126852;27;20006;-68
2022/11/24 03:07:11;;;;;;;;;;;7.00;99.90;;;;;;5128358;27;19920;-69
2022/11/24 03:09:36;;;;;;;;;;;7.10;99.90;;;;;;5091152;28;19924;-67
2022/11/24 03:12:02;;;;;;;;;;;7.00;99.90;;;;;;5090926;28;19928;-70
2022/11/24 03:14:27;;;;;;;;;;;6.90;99.90;;;;;;5093227;28;19958;-68
2022/11/24 03:16:53;;;;;;;;;;;6.90;99.90;;;;;;5088707;28;20370;-67
2022/11/24 03:19:18;;;;;;;;;;;7.00;99.90;;;;;;5128134;27;19919;-67
2022/11/24 03:21:44;;;;;;;;;;;7.00;99.90;;;;;;5090215;28;19924;-68
2022/11/24 03:24:09;;;;;;;;;;;7.00;99.90;;;;;;5088097;28;19920;-67
2022/11/24 03:26:35;;;;;;;;;;;6.90;99.90;;;;;;5088451;28;19928;-70
2022/11/24 03:29:00;;;;;;;;;;;6.90;99.90;;;;;;5091510;28;20385;-70
2022/11/24 03:31:26;;;;;;;;;;;6.80;99.90;;;;;;5090050;28;19926;-69
2022/11/24 03:33:51;;;;;;;;;;;6.90;99.90;;;;;;5097616;28;20423;-69
2022/11/24 03:36:17;;;;;;;;;;;6.90;99.90;;;;;;5097356;28;19924;-70
2022/11/24 03:38:42;;;;;;;;;;;6.80;99.90;;;;;;5094393;28;19928;-69
2022/11/24 03:41:08;;;;;;;;;;;6.70;99.90;;;;;;5098053;28;20034;-67
2022/11/24 03:43:33;;;;;;;;;;;6.80;99.90;;;;;;5097231;28;19930;-68
2022/11/24 03:45:59;;;;;;;;;;;6.80;99.90;;;;;;5100258;27;19920;-68
2022/11/24 03:48:24;;;;;;;;;;;6.80;99.90;;;;;;5102901;27;19967;-68
2022/11/24 03:50:54;;;;;;;;;;;6.80;99.90;;;;;;5097399;28;20011;-68
2022/11/24 03:53:20;;;;;;;;;;;6.80;99.90;;;;;;5135344;27;19927;-68
2022/11/24 03:55:45;;;;;;;;;;;6.80;99.90;;;;;;5100825;27;20306;-69
2022/11/24 03:58:11;;;;;;;;;;;6.90;99.90;;;;;;5129575;27;20339;-69
2022/11/24 04:00:37;;;;;;;;;;;6.70;99.90;;;;;;5100482;27;20437;-70
2022/11/24 04:03:02;;;;;;;;;;;6.70;99.90;;;;;;5097308;28;19991;-72
2022/11/24 04:05:28;;;;;;;;;;;6.70;99.90;;;;;;5098359;27;19932;-72
2022/11/24 04:07:56;;;;;;;;;;;6.70;99.90;;;;;;5102029;27;19935;-69
2022/11/24 04:10:23;;;;;;;;;;;6.70;99.90;;;;;;5080407;28;19942;-69
2022/11/24 04:12:48;;;;;;;;;;;6.70;99.90;;;;;;5117335;27;19959;-68
2022/11/24 04:15:17;;;;;;;;;;;6.70;99.90;;;;;;5083474;28;20225;-69
2022/11/24 04:17:43;;;;;;;;;;;6.70;99.90;;;;;;5116135;27;19924;-71
2022/11/24 04:20:09;;;;;;;;;;;6.70;99.90;;;;;;5118053;27;20386;-69
2022/11/24 04:22:35;;;;;;;;;;;6.60;99.90;;;;;;5107846;27;19931;-69
2022/11/24 04:25:01;;;;;;;;;;;6.60;99.90;;;;;;5079923;28;20290;-68
2022/11/24 04:27:27;;;;;;;;;;;6.60;99.90;;;;;;5081356;27;19932;-71
2022/11/24 04:29:52;;;;;;;;;;;6.60;99.90;;;;;;5116841;27;19986;-70
2022/11/24 04:32:18;;;;;;;;;;;6.50;99.90;;;;;;5083636;28;19955;-70
2022/11/24 04:34:43;;;;;;;;;;;6.60;99.90;;;;;;5087232;27;19927;-71
2022/11/24 04:37:09;;;;;;;;;;;6.50;99.90;;;;;;5083112;27;19928;-71
2022/11/24 04:39:34;;;;;;;;;;;6.60;99.90;;;;;;5084978;28;19927;-70
2022/11/24 04:42:00;;;;;;;;;;;6.60;99.90;;;;;;5078105;28;19920;-71
2022/11/24 04:44:26;;;;;;;;;;;6.50;99.90;;;;;;5074391;28;19989;-70
2022/11/24 04:46:51;;;;;;;;;;;6.50;99.90;;;;;;5077742;28;20470;-69
2022/11/24 04:49:17;;;;;;;;;;;6.50;99.90;;;;;;5078472;28;19928;-70
2022/11/24 04:51:43;;;;;;;;;;;6.50;99.90;;;;;;5079051;28;20366;-70
2022/11/24 04:54:09;;;;;;;;;;;6.40;99.90;;;;;;5084276;28;19927;-70
2022/11/24 04:56:34;;;;;;;;;;;6.40;99.90;;;;;;5078388;28;20363;-70
2022/11/24 04:59:00;;;;;;;;;;;6.50;99.90;;;;;;5114894;27;19989;-70
2022/11/24 05:01:25;;;;;;;;;;;6.40;99.90;;;;;;5077690;27;20247;-70
2022/11/24 05:03:54;;;;;;;;;;;6.40;99.90;;;;;;5113239;27;19935;-69
2022/11/24 05:06:20;;;;;;;;;;;6.50;99.90;;;;;;5087787;28;19966;-70
2022/11/24 05:08:46;;;;;;;;;;;6.40;99.90;;;;;;5082782;27;20531;-69
2022/11/24 05:11:12;;;;;;;;;;;6.40;99.90;;;;;;5095209;27;20174;-70
2022/11/24 05:13:37;;;;;;;;;;;6.30;99.90;;;;;;5097834;28;19927;-69
2022/11/24 05:16:03;;;;;;;;;;;6.50;99.90;;;;;;5099759;27;20394;-70
2022/11/24 05:18:29;;;;;;;;;;;6.30;99.90;;;;;;5093765;28;19923;-70
2022/11/24 05:20:54;;;;;;;;;;;6.30;99.90;;;;;;5102406;28;19919;-70
2022/11/24 05:23:20;;;;;;;;;;;6.40;99.90;;;;;;5096417;27;19939;-71
2022/11/24 05:25:45;;;;;;;;;;;6.40;99.90;;;;;;5102451;28;19926;-71
2022/11/24 05:28:11;;;;;;;;;;;6.30;99.90;;;;;;5102744;27;19920;-70
2022/11/24 05:30:37;;;;;;;;;;;6.40;99.90;;;;;;5109432;28;19920;-71
2022/11/24 05:33:04;;;;;;;;;;;6.30;99.90;;;;;;5096787;28;19980;-69
2022/11/24 05:35:30;;;;;;;;;;;6.40;99.90;;;;;;5106033;27;19973;-71
2022/11/24 05:37:56;;;;;;;;;;;6.30;99.90;;;;;;5096883;28;19920;-70
2022/11/24 05:40:22;;;;;;;;;;;6.30;99.90;;;;;;5091902;27;19923;-70
2022/11/24 05:42:47;;;;;;;;;;;6.30;99.90;;;;;;5092586;27;20359;-70
2022/11/24 05:45:14;;;;;;;;;;;6.40;99.90;;;;;;5097919;27;19923;-70
2022/11/24 05:47:40;;;;;;;;;;;6.40;99.90;;;;;;5093452;28;20310;-70
2022/11/24 05:50:07;;;;;;;;;;;6.30;99.90;;;;;;5127217;27;20358;-70
2022/11/24 05:52:33;;;;;;;;;;;6.30;99.90;;;;;;5122746;27;19972;-70
2022/11/24 05:54:58;;;;;;;;;;;6.30;99.90;;;;;;5093166;28;19928;-70
2022/11/24 05:57:24;;;;;;;;;;;6.30;99.90;;;;;;5095471;28;20089;-69
2022/11/24 05:59:49;;;;;;;;;;;6.30;99.90;;;;;;5088142;28;19924;-70
2022/11/24 06:02:15;;;;;;;;;;;6.30;99.90;;;;;;5073559;28;19986;-70
2022/11/24 06:04:40;;;;;;;;;;;6.40;99.90;;;;;;5099570;28;19965;-69
2022/11/24 06:07:07;;;;;;;;;;;6.30;99.90;;;;;;5074947;28;19920;-72
2022/11/24 06:09:37;;;;;;;;;;;6.30;99.90;;;;;;5070004;28;20007;-72
2022/11/24 06:12:02;;;;;;;;;;;6.30;99.90;;;;;;5089814;27;20066;-71
2022/11/24 06:14:28;;;;;;;;;;;6.50;99.90;;;;;;5090334;28;19928;-72
2022/11/24 06:16:53;;;;;;;;;;;6.40;99.90;;;;;;5093495;28;20450;-72
2022/11/24 06:19:19;;;;;;;;;;;6.50;99.90;;;;;;5092225;28;19924;-73
2022/11/24 06:21:44;;;;;;;;;;;6.60;99.90;;;;;;5090609;28;19951;-73
2022/11/24 06:24:10;;;;;;;;;;;6.60;99.90;;;;;;5095491;28;20022;-71
2022/11/24 06:26:35;;;;;;;;;;;6.70;99.90;;;;;;5093700;28;20389;-72
2022/11/24 06:29:01;;;;;;;;;;;6.70;99.90;;;;;;5096002;28;19920;-72
2022/11/24 06:31:26;;;;;;;;;;;6.80;99.90;;;;;;5099820;28;19978;-71
2022/11/24 06:33:52;;;;;;;;;;;6.80;99.90;;;;;;5093971;27;19986;-74
2022/11/24 06:36:17;;;;;;;;;;;6.80;99.90;;;;;;5108701;27;19934;-73
2022/11/24 06:38:43;;;;;;;;;;;6.80;99.90;;;;;;5094631;28;19930;-73
2022/11/24 06:41:11;;;;;;;;;;;6.80;99.90;;;;;;5091641;28;19927;-74
2022/11/24 06:43:36;;;;;;;;;;;6.70;99.90;;;;;;5088980;28;20375;-73
2022/11/24 06:46:02;;;;;;;;;;;6.70;99.90;;;;;;5097601;28;19928;-74
2022/11/24 06:48:28;;;;;;;;;;;6.60;99.90;;;;;;5126929;27;19935;-73
2022/11/24 06:50:57;;;;;;;;;;;6.60;99.90;;;;;;5098548;28;19920;-75
2022/11/24 06:53:23;;;;;;;;;;;6.70;99.90;;;;;;5121973;27;19977;-72
2022/11/24 06:55:48;;;;;;;;;;;6.80;99.90;;;;;;5095831;28;20406;-73
2022/11/24 06:58:14;;;;;;;;;;;6.80;99.90;;;;;;5087194;28;20615;-72
2022/11/24 07:00:39;;;;;;;;;;;6.80;99.90;;;;;;5087409;28;19920;-73
2022/11/24 07:03:05;;;;;;;;;;;6.90;99.90;;;;;;5091111;28;19924;-71
2022/11/24 07:05:30;;;;;;;;;;;6.80;99.90;;;;;;5091071;28;19919;-74
2022/11/24 07:07:58;;;;;;;;;;;6.90;99.90;;;;;;5093378;28;19939;-70
2022/11/24 07:10:23;;;;;;;;;;;6.80;99.90;;;;;;5073414;28;19928;-70
2022/11/24 07:12:49;;;;;;;;;;;7.00;99.90;;;;;;5078784;28;21316;-70
2022/11/24 07:15:14;;;;;;;;;;;7.00;99.90;;;;;;5083423;28;19920;-70
2022/11/24 07:17:40;;;;;;;;;;;6.90;99.90;;;;;;5060620;28;19927;-69
2022/11/24 07:20:07;;;;;;;;;;;7.00;99.90;;;;;;5096507;28;19969;-70
2022/11/24 07:22:32;;;;;;;;;;;7.00;99.90;;;;;;5078560;28;19924;-71
2022/11/24 07:24:58;;;;;;;;;;;7.10;99.90;;;;;;5078849;28;19993;-71
2022/11/24 07:27:23;;;;;;;;;;;7.10;99.90;;;;;;5082532;28;19943;-71
2022/11/24 07:29:49;;;;;;;;;;;7.00;99.90;;;;;;5083232;28;20386;-70
2022/11/24 07:32:15;;;;;;;;;;;7.00;99.90;;;;;;5081904;27;19919;-69
2022/11/24 07:34:40;;;;;;;;;;;7.10;99.90;;;;;;5130150;27;19997;-71
2022/11/24 07:37:05;;;;;;;;;;;7.20;99.90;;;;;;5085021;28;19928;-70
2022/11/24 07:39:31;;;;;;;;;;;7.10;99.90;;;;;;5113225;27;19920;-69
2022/11/24 07:41:57;;;;;;;;;;;7.10;99.90;;;;;;5062272;28;19927;-69
2022/11/24 07:44:23;;;;;;;;;;;7.20;99.90;;;;;;5113167;27;19939;-70
2022/11/24 07:46:50;;;;;;;;;;;7.30;99.90;;;;;;5080101;28;20378;-69
2022/11/24 07:49:16;;;;;;;;;;;7.20;99.90;;;;;;5099055;28;19924;-69
2022/11/24 07:51:41;;;;;;;;;;;7.20;99.90;;;;;;5085132;28;20389;-70
2022/11/24 07:54:07;;;;;;;;;;;7.20;99.90;;;;;;5077718;28;19926;-71
2022/11/24 07:56:32;;;;;;;;;;;7.20;99.90;;;;;;5083213;28;20010;-70
2022/11/24 07:58:58;;;;;;;;;;;7.20;99.90;;;;;;5060272;28;19920;-70
2022/11/24 08:01:23;;;;;;;;;;;7.10;99.90;;;;;;5092079;28;19928;-70
2022/11/24 08:03:49;;;;;;;;;;;7.10;99.90;;;;;;5100334;28;19924;-71
2022/11/24 08:06:15;;;;;;;;;;;7.10;99.90;;;;;;5147213;27;19919;-70
2022/11/24 08:08:40;;;;;;;;;;;7.00;99.90;;;;;;5105724;28;19974;-70
2022/11/24 08:11:07;;;;;;;;;;;7.00;99.90;;;;;;5097071;28;19931;-70
2022/11/24 08:13:33;;;;;;;;;;;7.00;99.90;;;;;;5100114;27;19920;-71
2022/11/24 08:16:02;;;;;;;;;;;6.90;99.90;;;;;;5133539;27;19931;-70
2022/11/24 08:18:27;;;;;;;;;;;6.90;99.90;;;;;;5132868;27;19923;-70
2022/11/24 08:20:56;;;;;;;;;;;6.90;99.90;;;;;;5097554;27;20078;-70
2022/11/24 08:23:21;;;;;;;;;;;6.90;99.90;;;;;;5117775;27;20271;-69
2022/11/24 08:25:46;;;;;;;;;;;6.90;99.90;;;;;;5092011;28;19939;-69
2022/11/24 08:28:12;;;;;;;;;;;6.90;99.90;;;;;;5106554;28;19919;-68
2022/11/24 08:30:37;;;;;;;;;;;6.80;99.90;;;;;;5096504;28;19920;-69
2022/11/24 08:33:03;;;;;;;;;;;6.90;99.90;;;;;;5112576;27;19923;-66
2022/11/24 08:35:28;;;;;;;;;;;6.90;99.90;;;;;;5121081;27;20002;-71
2022/11/24 08:37:54;;;;;;;;;;;7.00;99.90;;;;;;5093160;28;19920;-72
2022/11/24 08:40:20;;;;;;;;;;;6.90;99.90;;;;;;5107545;27;19928;-68
2022/11/24 08:42:46;;;;;;;;;;;7.00;99.90;;;;;;5106462;28;19924;-69
2022/11/24 08:45:11;;;;;;;;;;;7.10;99.90;;;;;;5101505;28;20302;-68
2022/11/24 08:47:37;;;;;;;;;;;7.10;99.90;;;;;;5097736;28;19920;-75
2022/11/24 08:50:04;;;;;;;;;;;7.10;99.90;;;;;;5094716;28;20302;-67
2022/11/24 08:52:30;;;;;;;;;;;7.20;99.90;;;;;;5102078;28;19924;-67
2022/11/24 08:54:55;;;;;;;;;;;7.20;99.90;;;;;;5140895;27;19927;-67
2022/11/24 08:57:21;;;;;;;;;;;7.40;99.90;;;;;;5102280;28;20406;-70
2022/11/24 08:59:46;;;;;;;;;;;7.50;99.90;;;;;;5119776;27;19924;-69
2022/11/24 09:02:12;;;;;;;;;;;7.50;99.90;;;;;;5100442;28;19920;-69
2022/11/24 09:04:38;;;;;;;;;;;7.50;99.90;;;;;;5093901;28;20311;-71
2022/11/24 09:07:04;;;;;;;;;;;7.70;99.90;;;;;;5134168;27;19985;-67
2022/11/24 09:09:29;;;;;;;;;;;7.60;99.90;;;;;;5141333;27;19920;-71
2022/11/24 09:11:55;;;;;;;;;;;7.60;99.90;;;;;;5125337;27;20435;-66
2022/11/24 09:14:20;;;;;;;;;;;7.70;99.90;;;;;;5092702;28;20022;-69
2022/11/24 09:16:46;;;;;;;;;;;7.70;99.90;;;;;;5126596;27;19920;-68
2022/11/24 09:19:11;;;;;;;;;;;7.60;99.90;;;;;;5099384;28;20409;-68
2022/11/24 09:21:37;;;;;;;;;;;7.70;99.90;;;;;;5109735;28;19920;-67
2022/11/24 09:24:04;;;;;;;;;;;7.90;99.90;;;;;;5090997;28;19936;-66
2022/11/24 09:26:30;;;;;;;;;;;7.90;99.90;;;;;;5090972;28;19923;-68
2022/11/24 09:28:57;;;;;;;;;;;8.10;99.90;;;;;;5091066;28;20010;-64
2022/11/24 09:31:24;;;;;;;;;;;8.00;99.90;;;;;;5073540;28;19921;-69
2022/11/24 09:33:51;;;;;;;;;;;8.10;99.90;;;;;;5137039;27;19920;-67
2022/11/24 09:36:17;;;;;;;;;;;8.20;99.90;;;;;;5110832;28;19923;-68
2022/11/24 09:38:42;;;;;;;;;;;8.20;99.90;;;;;;5102090;28;19920;-69
2022/11/24 09:41:17;;;;;;;;;;;8.10;99.90;;;;;;5110249;28;19938;-69
2022/11/24 09:43:43;;;;;;;;;;;8.20;99.90;;;;;;5107053;28;19967;-71
2022/11/24 09:46:14;;;;;;;;;;;8.30;99.90;;;;;;5093551;28;20039;-67
2022/11/24 09:48:41;;;;;;;;;;;8.30;99.90;;;;;;5079935;28;19927;-67
2022/11/24 09:51:10;;;;;;;;;;;8.30;99.90;;;;;;5132071;27;20002;-66
2022/11/24 09:53:52;;;;;;;;;;;8.40;99.90;;;;;;5109913;27;19924;-66
2022/11/24 09:56:26;;;;;;;;;;;8.40;99.90;;;;;;5107636;28;19920;-65
2022/11/24 09:59:06;;;;;;;;;;;8.40;99.90;;;;;;5091765;28;19927;-68
2022/11/24 10:01:31;;;;;;;;;;;8.40;99.90;;;;;;5091620;28;19924;-69
2022/11/24 10:03:57;;;;;;;;;;;8.30;99.90;;;;;;5104217;28;19947;-68
2022/11/24 10:06:33;;;;;;;;;;;8.40;99.90;;;;;;5099539;28;19924;-69
2022/11/24 10:09:08;;;;;;;;;;;8.40;99.90;;;;;;5105769;28;20350;-67
2022/11/24 10:11:37;;;;;;;;;;;8.50;99.90;;;;;;5108815;28;19974;-69
2022/11/24 10:14:05;;;;;;;;;;;8.60;99.90;;;;;;5142788;27;19943;-70
2022/11/24 10:16:34;;;;;;;;;;;8.60;99.90;;;;;;5104040;28;20386;-67
2022/11/24 10:19:35;;;;;;;;;;;8.60;99.90;;;;;;5100799;28;19920;-66
2022/11/24 10:22:07;;;;;;;;;;;8.70;99.90;;;;;;4999932;28;19926;-67
2022/11/24 10:24:35;;;;;;;;;;;8.70;99.90;;;;;;5082171;28;20332;-69
2022/11/24 10:27:02;;;;;;;;;;;8.70;99.90;;;;;;5106571;28;20010;-69
2022/11/24 10:29:33;;;;;;;;;;;8.70;99.90;;;;;;5077470;28;20294;-70
2022/11/24 10:31:59;;;;;;;;;;;8.80;99.90;;;;;;5133066;27;19924;-70
2022/11/24 10:34:28;;;;;;;;;;;8.90;99.90;;;;;;5108440;28;19920;-69
2022/11/24 10:36:53;;;;;;;;;;;8.90;99.90;;;;;;5090357;28;19928;-71
2022/11/24 10:39:19;;;;;;;;;;;8.90;99.90;;;;;;5100703;28;20061;-71
2022/11/24 10:41:58;;;;;;;;;;;9.00;99.90;;;;;;5091323;28;20165;-67
2022/11/24 10:44:23;;;;;;;;;;;9.00;99.90;;;;;;5128436;27;19932;-70
2022/11/24 10:46:50;;;;;;;;;;;9.00;99.90;;;;;;5133560;27;19924;-66
2022/11/24 10:49:22;;;;;;;;;;;9.10;99.90;;;;;;5100898;28;20026;-66
2022/11/24 10:52:07;;;;;;;;;;;9.20;99.90;;;;;;5097098;28;20263;-69
2022/11/24 10:54:34;;;;;;;;;;;9.20;99.90;;;;;;5104438;28;19943;-68
2022/11/24 10:57:00;;;;;;;;;;;9.30;99.90;;;;;;5123517;27;19923;-66
2022/11/24 10:59:29;;;;;;;;;;;9.20;99.90;;;;;;5113320;28;19927;-66
2022/11/24 11:01:54;;;;;;;;;;;9.30;99.90;;;;;;5107078;28;20429;-68
2022/11/24 11:04:22;;;;;;;;;;;9.30;99.90;;;;;;5114398;28;19932;-67
2022/11/24 11:06:48;;;;;;;;;;;9.30;99.90;;;;;;5103811;28;19965;-67
2022/11/24 11:09:13;;;;;;;;;;;9.40;99.90;;;;;;5137169;27;19973;-66
2022/11/24 11:11:39;;;;;;;;;;;9.40;99.90;;;;;;5129061;27;19928;-68
2022/11/24 11:14:06;;;;;;;;;;;9.50;99.90;;;;;;5112606;28;19926;-66
2022/11/24 11:16:41;;;;;;;;;;;9.50;99.90;;;;;;5097113;28;19920;-68
2022/11/24 11:19:26;;;;;;;;;;;9.60;99.90;;;;;;5128219;27;19927;-65
2022/11/24 11:22:02;;;;;;;;;;;9.60;99.90;;;;;;5146868;27;19923;-65
2022/11/24 11:24:28;;;;;;;;;;;9.70;99.90;;;;;;5098303;27;20342;-67
2022/11/24 11:27:01;;;;;;;;;;;9.60;99.90;;;;;;5105645;27;20010;-71
2022/11/24 11:29:27;;;;;;;;;;;9.80;99.90;;;;;;5110497;27;20406;-66
2022/11/24 11:32:14;;;;;;;;;;;9.80;99.90;;;;;;5110356;28;19969;-67
2022/11/24 11:34:41;;;;;;;;;;;9.80;99.90;;;;;;5108785;27;20061;-67
2022/11/24 11:37:08;;;;;;;;;;;9.90;99.90;;;;;;5110038;28;19928;-64
2022/11/24 11:39:35;;;;;;;;;;;9.90;99.90;;;;;;5114164;28;19973;-66
2022/11/24 11:42:17;;;;;;;;;;;10.00;99.90;;;;;;5102730;28;19920;-68
2022/11/24 11:44:45;;;;;;;;;;;10.00;99.90;;;;;;5097131;28;19959;-67
2022/11/24 11:47:21;;;;;;;;;;;10.10;99.90;;;;;;5107908;28;20522;-66
2022/11/24 11:49:47;;;;;;;;;;;10.10;99.90;;;;;;5132429;27;19923;-67
2022/11/24 11:52:25;;;;;;;;;;;10.10;99.90;;;;;;5110600;27;19969;-68
2022/11/24 11:55:14;;;;;;;;;;;10.20;99.90;;;;;;5093684;28;19971;-69
2022/11/24 11:57:52;;;;;;;;;;;10.20;99.90;;;;;;5056553;28;19920;-69
2022/11/24 12:00:19;;;;;;;;;;;10.20;99.90;;;;;;5098319;28;20477;-66
2022/11/24 12:02:47;;;;;;;;;;;10.20;99.90;;;;;;5146647;27;19967;-68
2022/11/24 12:05:25;;;;;;;;;;;10.20;99.90;;;;;;5099052;27;19920;-68
2022/11/24 12:07:50;;;;;;;;;;;10.20;99.90;;;;;;5133738;27;20014;-66
2022/11/24 12:10:35;;;;;;;;;;;10.30;99.90;;;;;;5128490;27;20026;-68
2022/11/24 12:13:20;;;;;;;;;;;10.30;99.90;;;;;;5084844;28;19924;-68
2022/11/24 12:15:50;;;;;;;;;;;10.30;99.90;;;;;;5089537;28;19920;-67
2022/11/24 12:18:54;;;;;;;;;;;10.30;99.90;;;;;;5115614;27;20010;-68
2022/11/24 12:21:19;;;;;;;;;;;10.40;99.90;;;;;;5007973;28;19933;-67
2022/11/24 12:23:56;;;;;;;;;;;10.40;99.90;;;;;;5009460;28;20044;-67
2022/11/24 12:26:40;;;;;;;;;;;10.40;99.90;;;;;;5045350;28;20263;-67
2022/11/24 12:29:15;;;;;;;;;;;10.40;99.90;;;;;;5084949;27;20011;-68
2022/11/24 12:31:46;;;;;;;;;;;10.40;99.90;;;;;;5084901;28;20373;-68
2022/11/24 12:34:24;;;;;;;;;;;10.40;99.90;;;;;;5093322;28;19992;-66
2022/11/24 12:36:59;;;;;;;;;;;10.50;99.90;;;;;;5089138;28;20378;-66
2022/11/24 12:39:32;;;;;;;;;;;10.50;99.90;;;;;;5085768;28;20325;-68
2022/11/24 12:42:18;;;;;;;;;;;10.50;99.90;;;;;;5119085;27;19921;-69
2022/11/24 12:45:02;;;;;;;;;;;10.50;99.90;;;;;;5080165;28;19931;-68
2022/11/24 12:47:35;;;;;;;;;;;10.50;99.90;;;;;;5095713;27;19928;-70
2022/11/24 12:50:07;;;;;;;;;;;10.40;99.90;;;;;;5101162;28;19924;-68
2022/11/24 12:52:38;;;;;;;;;;;10.50;99.90;;;;;;5115988;27;19932;-65
2022/11/24 12:55:11;;;;;;;;;;;10.50;99.90;;;;;;5089973;28;19928;-65
2022/11/24 12:57:43;;;;;;;;;;;10.50;99.90;;;;;;5074178;28;19924;-68
2022/11/24 13:00:22;;;;;;;;;;;10.60;99.90;;;;;;5083181;28;20357;-68
2022/11/24 13:02:53;;;;;;;;;;;10.60;99.90;;;;;;5122187;27;19932;-68
2022/11/24 13:05:30;;;;;;;;;;;10.70;99.90;;;;;;5092947;28;19931;-65
2022/11/24 13:07:57;;;;;;;;;;;10.70;99.90;;;;;;5086829;28;19927;-65
2022/11/24 13:10:22;;;;;;;;;;;10.70;99.90;;;;;;5083639;28;19932;-67
2022/11/24 13:13:07;;;;;;;;;;;10.70;99.90;;;;;;5092637;28;19951;-67
2022/11/24 13:15:52;;;;;;;;;;;10.70;99.90;;;;;;5117455;27;19955;-67
2022/11/24 13:18:37;;;;;;;;;;;10.70;99.90;;;;;;5085523;28;19932;-68
2022/11/24 13:21:02;;;;;;;;;;;10.60;99.90;;;;;;5090550;28;19942;-69
2022/11/24 13:23:28;;;;;;;;;;;10.60;99.90;;;;;;5094020;28;20370;-68
2022/11/24 13:26:13;;;;;;;;;;;10.70;99.90;;;;;;5078013;28;20149;-67
2022/11/24 13:28:57;;;;;;;;;;;10.70;99.90;;;;;;5089239;28;19931;-67
2022/11/24 13:31:22;;;;;;;;;;;10.70;99.90;;;;;;5108016;27;20393;-68
2022/11/24 13:33:48;;;;;;;;;;;10.70;99.90;;;;;;5060354;28;19920;-69
2022/11/24 13:36:19;;;;;;;;;;;10.70;99.90;;;;;;5064519;28;19924;-69
2022/11/24 13:38:45;;;;;;;;;;;10.70;99.90;;;;;;5110777;28;19923;-69
2022/11/24 13:41:30;;;;;;;;;;;10.70;99.90;;;;;;5093721;28;19920;-68
2022/11/24 13:44:14;;;;;;;;;;;10.70;99.90;;;;;;5094774;27;19930;-69
2022/11/24 13:46:59;;;;;;;;;;;10.60;99.90;;;;;;5088343;28;19989;-69
2022/11/24 13:49:36;;;;;;;;;;;10.60;99.90;;;;;;5077402;28;20290;-69
2022/11/24 13:52:20;;;;;;;;;;;10.50;99.90;;;;;;5125658;27;19923;-70
2022/11/24 13:54:45;;;;;;;;;;;10.50;99.90;;;;;;5085244;28;19924;-69
2022/11/24 13:57:31;;;;;;;;;;;10.40;99.90;;;;;;5084002;28;19920;-69
2022/11/24 13:59:59;;;;;;;;;;;10.40;99.90;;;;;;5123424;27;19924;-69
2022/11/24 14:02:25;;;;;;;;;;;10.20;99.90;;;;;;5091280;28;20022;-70
2022/11/24 14:04:51;;;;;;;;;;;10.20;99.90;;;;;;5099649;28;20080;-70
2022/11/24 14:07:16;;;;;;;;;;;10.10;99.90;;;;;;5092474;28;19934;-69
2022/11/24 14:09:43;;;;;;;;;;;10.10;99.90;;;;;;5100339;28;19920;-70
2022/11/24 14:12:19;;;;;;;;;;;10.10;99.90;;;;;;5094046;28;20056;-68
2022/11/24 14:14:45;;;;;;;;;;;10.10;99.90;;;;;;5088799;28;19935;-69
2022/11/24 14:17:14;;;;;;;;;;;10.10;99.90;;;;;;5107670;27;19919;-69
2022/11/24 14:19:40;;;;;;;;;;;10.00;99.90;;;;;;5106182;28;19924;-69
2022/11/24 14:22:11;;;;;;;;;;;10.00;99.90;;;;;;5100136;28;19931;-70
2022/11/24 14:24:37;;;;;;;;;;;10.00;99.90;;;;;;5106935;28;19930;-70
2022/11/24 14:27:03;;;;;;;;;;;10.00;99.90;;;;;;5124683;27;19998;-69
2022/11/24 14:29:31;;;;;;;;;;;10.00;99.90;;;;;;5113462;27;20069;-69
2022/11/24 14:31:58;;;;;;;;;;;9.90;99.90;;;;;;5096528;28;19924;-70
2022/11/24 14:34:25;;;;;;;;;;;9.90;99.90;;;;;;5101057;27;19931;-70
2022/11/24 14:36:53;;;;;;;;;;;9.80;99.90;;;;;;5094937;28;19926;-69